createdAt,value
2023-03-15T00:02:04.206Z,1.92
2023-03-15T00:04:37.207Z,2.78
2023-03-15T00:07:11.429Z,2.50
2023-03-15T00:09:41.697Z,2.20
2023-03-15T00:12:12.505Z,2.23
2023-03-15T00:14:42.946Z,2.53
2023-03-15T00:17:16.791Z,2.53
2023-03-15T00:19:48.174Z,2.40
2023-03-15T00:24:53.761Z,1.95
2023-03-15T00:27:24.018Z,3.60
2023-03-15T00:29:54.337Z,2.10
2023-03-15T00:32:24.645Z,2.60
2023-03-15T00:34:55.048Z,2.60
2023-03-15T00:37:28.530Z,2.30
2023-03-15T00:39:58.763Z,2.23
2023-03-15T00:42:29.806Z,2.40
2023-03-15T00:45:00.307Z,2.63
2023-03-15T00:47:30.694Z,2.25
2023-03-15T00:50:01.233Z,2.00
2023-03-15T00:52:38.788Z,2.47
2023-03-15T00:55:16.200Z,2.28
2023-03-15T00:57:49.436Z,2.42
2023-03-15T01:00:24.976Z,2.65
2023-03-15T01:02:56.663Z,2.78
2023-03-15T01:05:29.760Z,2.28
2023-03-15T01:08:03.181Z,2.38
2023-03-15T01:10:34.365Z,1.90
2023-03-15T01:13:07.267Z,2.10
2023-03-15T01:15:37.627Z,2.10
2023-03-15T01:18:08.207Z,2.17
2023-03-15T01:20:38.620Z,2.70
2023-03-15T01:23:12.244Z,2.00
2023-03-15T01:25:43.413Z,2.13
2023-03-15T01:28:13.961Z,2.42
2023-03-15T01:30:52.263Z,2.58
2023-03-15T01:33:23.169Z,2.42
2023-03-15T01:36:02.784Z,2.72
2023-03-15T01:38:37.341Z,2.65
2023-03-15T01:41:08.471Z,2.35
2023-03-15T01:43:38.907Z,2.03
2023-03-15T01:46:26.481Z,2.37
2023-03-15T01:49:12.597Z,2.38
2023-03-15T01:51:50.127Z,2.07
2023-03-15T01:54:31.059Z,2.75
2023-03-15T01:57:06.690Z,2.63
2023-03-15T01:59:43.447Z,2.63
2023-03-15T02:02:15.662Z,3.03
2023-03-15T02:04:52.273Z,2.03
2023-03-15T02:07:27.243Z,3.20
2023-03-15T02:10:08.325Z,2.63
2023-03-15T02:12:45.753Z,2.88
2023-03-15T02:15:19.236Z,2.40
2023-03-15T02:17:52.111Z,1.88
2023-03-15T02:20:35.567Z,2.90
2023-03-15T02:23:10.103Z,2.20
2023-03-15T02:25:54.951Z,2.10
2023-03-15T02:28:29.223Z,1.92
2023-03-15T02:31:00.794Z,2.08
2023-03-15T02:33:38.005Z,3.00
2023-03-15T02:36:14.704Z,2.10
2023-03-15T02:38:48.090Z,2.53
2023-03-15T02:41:22.312Z,2.20
2023-03-15T02:44:05.313Z,2.27
2023-03-15T02:46:36.002Z,2.10
2023-03-15T02:49:09.682Z,2.20
2023-03-15T02:51:50.568Z,2.20
2023-03-15T02:54:34.562Z,2.42
2023-03-15T02:57:05.984Z,2.50
2023-03-15T02:59:43.263Z,1.97
2023-03-15T03:02:17.915Z,2.20
2023-03-15T03:04:50.517Z,2.23
2023-03-15T03:07:22.616Z,2.47
2023-03-15T03:10:02.114Z,2.70
2023-03-15T03:12:44.949Z,3.23
2023-03-15T03:15:18.432Z,3.17
2023-03-15T03:17:52.072Z,2.80
2023-03-15T03:20:27.598Z,2.47
2023-03-15T03:23:06.643Z,2.10
2023-03-15T03:25:37.836Z,2.47
2023-03-15T03:30:42.014Z,2.27
2023-03-15T03:33:20.306Z,2.77
2023-03-15T03:35:54.447Z,2.33
2023-03-15T03:38:28.270Z,2.17
2023-03-15T03:41:03.451Z,3.30
2023-03-15T03:43:35.731Z,2.03
2023-03-15T03:46:13.745Z,1.80
2023-03-15T03:48:51.066Z,2.70
2023-03-15T03:51:29.579Z,2.57
2023-03-15T03:53:59.962Z,2.20
2023-03-15T03:56:30.485Z,2.00
2023-03-15T03:59:00.779Z,2.57
2023-03-15T04:01:45.615Z,2.40
2023-03-15T04:04:16.278Z,2.37
2023-03-15T04:06:50.784Z,2.60
2023-03-15T04:09:27.732Z,2.53
2023-03-15T04:11:58.437Z,1.90
2023-03-15T04:14:29.198Z,2.63
2023-03-15T04:17:03.924Z,3.15
2023-03-15T04:19:37.745Z,2.47
2023-03-15T04:22:09.580Z,2.10
2023-03-15T04:24:50.758Z,2.37
2023-03-15T04:27:44.626Z,2.67
2023-03-15T04:30:38.055Z,2.70
2023-03-15T04:33:24.630Z,2.15
2023-03-15T04:36:18.246Z,1.80
2023-03-15T04:39:08.302Z,2.37
2023-03-15T04:41:51.025Z,1.97
2023-03-15T04:44:44.184Z,2.13
2023-03-15T04:47:37.286Z,2.30
2023-03-15T04:50:28.780Z,1.77
2023-03-15T04:53:17.320Z,2.10
2023-03-15T04:56:05.969Z,1.83
2023-03-15T04:59:00.297Z,2.57
2023-03-15T05:01:50.746Z,1.90
2023-03-15T05:04:39.580Z,1.80
2023-03-15T05:07:23.328Z,2.05
2023-03-15T05:09:53.678Z,1.97
2023-03-15T05:12:43.024Z,2.47
2023-03-15T05:15:35.853Z,2.47
2023-03-15T05:18:27.671Z,2.63
2023-03-15T05:21:29.923Z,2.43
2023-03-15T05:27:39.115Z,2.10
2023-03-15T05:30:36.426Z,2.83
2023-03-15T05:33:17.114Z,2.05
2023-03-15T05:36:08.790Z,2.17
2023-03-15T05:38:59.352Z,2.10
2023-03-15T05:41:50.893Z,2.13
2023-03-15T05:44:32.615Z,1.77
2023-03-15T05:47:21.682Z,1.90
2023-03-15T05:50:14.212Z,2.40
2023-03-15T05:52:57.144Z,2.60
2023-03-15T05:55:40.104Z,2.80
2023-03-15T05:58:36.053Z,1.93
2023-03-15T06:01:26.918Z,2.93
2023-03-15T06:04:08.349Z,1.67
2023-03-15T06:06:40.061Z,2.17
2023-03-15T06:09:12.592Z,2.80
2023-03-15T06:11:43.265Z,2.28
2023-03-15T06:14:18.875Z,2.73
2023-03-15T06:16:59.410Z,2.40
2023-03-15T06:19:32.194Z,2.87
2023-03-15T06:22:03.773Z,3.63
2023-03-15T06:24:41.433Z,2.30
2023-03-15T06:27:12.220Z,2.72
2023-03-15T06:29:45.434Z,2.42
2023-03-15T06:32:15.896Z,2.80
2023-03-15T06:34:46.479Z,2.35
2023-03-15T06:37:29.072Z,2.37
2023-03-15T06:40:06.073Z,2.40
2023-03-15T06:42:36.924Z,2.67
2023-03-15T06:45:13.227Z,3.47
2023-03-15T06:47:43.525Z,2.55
2023-03-15T06:50:15.099Z,2.57
2023-03-15T06:52:45.570Z,2.90
2023-03-15T06:55:18.382Z,3.10
2023-03-15T06:57:49.244Z,2.15
2023-03-15T07:00:23.469Z,3.10
2023-03-15T07:02:53.853Z,2.70
2023-03-15T07:05:24.418Z,2.77
2023-03-15T07:07:54.844Z,2.78
2023-03-15T07:10:25.110Z,2.50
2023-03-15T07:12:55.472Z,2.37
2023-03-15T07:15:28.549Z,3.23
2023-03-15T07:17:58.843Z,2.78
2023-03-15T07:20:29.171Z,3.70
2023-03-15T07:22:59.502Z,2.73
2023-03-15T07:25:29.863Z,2.23
2023-03-15T07:28:00.133Z,2.20
2023-03-15T07:30:33.190Z,2.43
2023-03-15T07:33:03.469Z,3.08
2023-03-15T07:35:33.783Z,2.47
2023-03-15T07:38:06.660Z,2.10
2023-03-15T07:40:36.959Z,2.20
2023-03-15T07:43:07.289Z,2.30
2023-03-15T07:45:40.327Z,1.87
2023-03-15T07:48:11.288Z,2.20
2023-03-15T07:50:41.790Z,2.45
2023-03-15T07:53:12.263Z,2.38
2023-03-15T07:55:42.720Z,2.03
2023-03-15T07:58:13.063Z,2.50
2023-03-15T08:00:46.026Z,2.63
2023-03-15T08:03:16.356Z,2.50
2023-03-15T08:05:46.668Z,2.53
2023-03-15T08:08:16.937Z,2.30
2023-03-15T08:10:48.308Z,2.60
2023-03-15T08:13:18.613Z,2.58
2023-03-15T08:15:51.612Z,2.60
2023-03-15T08:18:21.902Z,2.80
2023-03-15T08:20:52.348Z,2.10
2023-03-15T08:23:22.643Z,3.13
2023-03-15T08:25:53.190Z,2.17
2023-03-15T08:28:24.642Z,2.22
2023-03-15T08:30:57.546Z,2.08
2023-03-15T08:33:30.270Z,2.38
2023-03-15T08:36:01.277Z,1.98
2023-03-15T08:38:31.663Z,2.22
2023-03-15T08:41:02.608Z,2.27
2023-03-15T08:43:32.978Z,2.03
2023-03-15T08:46:05.990Z,2.40
2023-03-15T08:48:36.265Z,2.72
2023-03-15T08:51:07.375Z,2.25
2023-03-15T08:53:38.510Z,2.78
2023-03-15T08:56:09.449Z,2.85
2023-03-15T08:58:39.992Z,2.95
2023-03-15T09:01:15.185Z,2.40
2023-03-15T09:03:45.856Z,2.38
2023-03-15T09:06:16.197Z,2.80
2023-03-15T09:08:46.607Z,3.77
2023-03-15T09:11:16.925Z,2.57
2023-03-15T09:13:47.184Z,2.90
2023-03-15T09:16:20.232Z,2.73
2023-03-15T09:18:50.753Z,2.55
2023-03-15T09:21:21.053Z,3.23
2023-03-15T09:23:51.453Z,2.87
2023-03-15T09:26:23.420Z,2.63
2023-03-15T09:28:53.744Z,2.38
2023-03-15T09:31:27.561Z,3.20
2023-03-15T09:33:58.727Z,5.80
2023-03-15T09:36:29.174Z,3.88
2023-03-15T09:38:59.578Z,3.42
2023-03-15T09:41:46.050Z,3.07
2023-03-15T09:44:31.290Z,3.08
2023-03-15T09:47:19.250Z,2.70
2023-03-15T09:49:55.457Z,3.35
2023-03-15T09:52:36.717Z,2.88
2023-03-15T09:55:16.218Z,3.53
2023-03-15T09:57:53.546Z,3.03
2023-03-15T10:00:28.933Z,4.43
2023-03-15T10:03:07.375Z,3.45
2023-03-15T10:05:44.645Z,3.17
2023-03-15T10:08:17.672Z,2.92
2023-03-15T10:10:55.075Z,2.83
2023-03-15T10:13:42.493Z,3.63
2023-03-15T10:16:31.970Z,2.95
2023-03-15T10:19:17.500Z,3.30
2023-03-15T10:21:58.671Z,2.55
2023-03-15T10:24:39.080Z,2.90
2023-03-15T10:27:20.913Z,2.83
2023-03-15T10:29:53.751Z,4.93
2023-03-15T10:32:30.410Z,3.10
2023-03-15T10:35:12.247Z,2.90
2023-03-15T10:37:42.707Z,2.83
2023-03-15T10:40:16.475Z,3.70
2023-03-15T10:42:49.079Z,3.10
2023-03-15T10:45:25.749Z,2.80
2023-03-15T10:48:00.697Z,3.30
2023-03-15T10:50:36.205Z,6.30
2023-03-15T10:53:14.214Z,2.72
2023-03-15T10:55:47.712Z,2.65
2023-03-15T10:58:31.568Z,2.50
2023-03-15T11:01:09.716Z,2.60
2023-03-15T11:03:41.077Z,2.38
2023-03-15T11:06:29.856Z,2.40
2023-03-15T11:09:14.664Z,2.85
2023-03-15T11:12:03.931Z,2.53
2023-03-15T11:14:40.918Z,2.72
2023-03-15T11:17:23.488Z,2.50
2023-03-15T11:19:59.978Z,2.80
2023-03-15T11:22:33.226Z,2.40
2023-03-15T11:25:03.656Z,2.38
2023-03-15T11:27:34.709Z,2.25
2023-03-15T11:30:05.534Z,2.45
2023-03-15T11:32:36.564Z,2.28
2023-03-15T11:35:13.449Z,2.10
2023-03-15T11:37:55.185Z,2.00
2023-03-15T11:40:36.557Z,1.92
2023-03-15T11:43:13.660Z,2.58
2023-03-15T11:45:49.548Z,2.00
2023-03-15T11:48:44.641Z,2.65
2023-03-15T11:51:16.997Z,1.95
2023-03-15T11:53:58.534Z,1.80
2023-03-15T11:56:32.312Z,2.05
2023-03-15T11:59:11.332Z,2.15
2023-03-15T12:01:49.804Z,2.65
2023-03-15T12:04:40.767Z,13.48
2023-03-15T12:08:22.042Z,2.30
2023-03-15T12:10:55.862Z,1.98
2023-03-15T12:13:29.801Z,1.60
2023-03-15T12:16:00.963Z,1.90
2023-03-15T12:18:43.112Z,1.90
2023-03-15T12:21:26.870Z,1.88
2023-03-15T12:24:05.318Z,1.98
2023-03-15T12:26:44.918Z,2.22
2023-03-15T12:29:24.136Z,1.80
2023-03-15T12:32:00.167Z,2.15
2023-03-15T12:34:40.075Z,1.90
2023-03-15T12:37:17.183Z,2.00
2023-03-15T12:39:52.182Z,1.98
2023-03-15T12:43:13.374Z,1.73
2023-03-15T12:45:52.586Z,1.63
2023-03-15T12:48:26.895Z,1.50
2023-03-15T12:51:01.408Z,1.63
2023-03-15T12:53:43.942Z,1.83
2023-03-15T12:56:44.503Z,1.73
2023-03-15T12:59:41.334Z,1.60
2023-03-15T13:02:43.288Z,2.63
2023-03-15T13:05:26.668Z,2.60
2023-03-15T13:08:07.243Z,2.38
2023-03-15T13:11:14.019Z,2.42
2023-03-15T13:14:10.793Z,2.20
2023-03-15T13:16:47.855Z,2.35
2023-03-15T13:19:25.784Z,3.13
2023-03-15T13:22:08.905Z,2.97
2023-03-15T13:24:52.468Z,2.42
2023-03-15T13:27:45.643Z,2.30
2023-03-15T13:30:36.543Z,2.00
2023-03-15T13:33:21.138Z,2.08
2023-03-15T13:36:01.217Z,3.92
2023-03-15T13:38:35.692Z,2.35
2023-03-15T13:41:17.730Z,2.08
2023-03-15T13:43:48.916Z,2.70
2023-03-15T13:46:22.920Z,2.45
2023-03-15T13:48:55.102Z,2.38
2023-03-15T13:51:32.038Z,2.13
2023-03-15T13:54:07.868Z,2.10
2023-03-15T13:56:49.318Z,2.10
2023-03-15T13:59:21.118Z,2.13
2023-03-15T14:01:54.158Z,2.00
2023-03-15T14:04:27.282Z,1.55
2023-03-15T14:07:38.021Z,2.47
2023-03-15T14:10:25.920Z,1.30
2023-03-15T14:12:57.990Z,1.63
2023-03-15T14:15:38.381Z,3.00
2023-03-15T14:18:21.110Z,1.80
2023-03-15T14:21:00.089Z,1.80
2023-03-15T14:23:34.006Z,1.60
2023-03-15T14:26:13.858Z,1.63
2023-03-15T14:28:44.920Z,1.70
2023-03-15T14:31:25.055Z,1.58
2023-03-15T14:34:00.918Z,2.10
2023-03-15T14:36:38.608Z,1.95
2023-03-15T14:39:21.955Z,2.65
2023-03-15T14:41:52.334Z,2.20
2023-03-15T14:44:22.850Z,2.25
2023-03-15T14:46:53.810Z,2.90
2023-03-15T14:49:28.608Z,2.45
2023-03-15T14:52:03.806Z,2.53
2023-03-15T14:54:37.427Z,2.30
2023-03-15T14:57:07.852Z,2.88
2023-03-15T14:59:38.242Z,2.45
2023-03-15T15:02:09.294Z,3.78
2023-03-15T15:07:14.433Z,3.47
2023-03-15T15:09:52.217Z,3.00
2023-03-15T15:12:22.628Z,3.15
2023-03-15T15:14:53.082Z,3.10
2023-03-15T15:17:23.714Z,3.05
2023-03-15T15:19:54.153Z,3.08
2023-03-15T15:22:24.776Z,2.83
2023-03-15T15:24:57.703Z,2.60
2023-03-15T15:27:28.138Z,2.90
2023-03-15T15:29:58.498Z,2.30
2023-03-15T15:32:29.008Z,2.55
2023-03-15T15:34:59.543Z,2.25
2023-03-15T15:37:29.968Z,1.95
2023-03-15T15:40:04.225Z,2.65
2023-03-15T15:42:34.598Z,2.75
2023-03-15T15:45:13.312Z,2.45
2023-03-15T15:47:44.133Z,2.25
2023-03-15T15:50:17.568Z,2.47
2023-03-15T15:52:54.358Z,2.67
2023-03-15T15:55:33.962Z,3.72
2023-03-15T15:58:05.397Z,3.35
2023-03-15T16:00:35.728Z,3.33
2023-03-15T16:03:15.104Z,1.88
2023-03-15T16:05:48.543Z,1.50
2023-03-15T16:08:24.727Z,2.72
2023-03-15T16:10:57.798Z,1.92
2023-03-15T16:13:28.117Z,1.70
2023-03-15T16:15:58.590Z,1.80
2023-03-15T16:18:28.940Z,2.13
2023-03-15T16:20:59.508Z,2.27
2023-03-15T16:23:29.904Z,2.60
2023-03-15T16:26:02.821Z,2.57
2023-03-15T16:28:33.330Z,3.30
2023-03-15T16:31:03.890Z,2.83
2023-03-15T16:33:35.076Z,2.63
2023-03-15T16:38:38.946Z,3.83
2023-03-15T16:41:16.735Z,3.38
2023-03-15T16:43:49.423Z,3.58
2023-03-15T16:46:20.638Z,3.75
2023-03-15T16:48:50.994Z,4.28
2023-03-15T16:51:21.406Z,3.60
2023-03-15T16:53:55.430Z,3.60
2023-03-15T16:56:36.676Z,3.72
2023-03-15T16:59:07.727Z,4.32
2023-03-15T17:01:38.305Z,3.72
2023-03-15T17:04:12.465Z,3.97
2023-03-15T17:06:45.406Z,3.60
2023-03-15T17:09:18.855Z,4.00
2023-03-15T17:11:56.052Z,3.70
2023-03-15T17:14:34.774Z,4.07
2023-03-15T17:17:05.441Z,4.50
2023-03-15T17:19:36.252Z,4.43
2023-03-15T17:22:11.141Z,4.03
2023-03-15T17:24:43.619Z,4.88
2023-03-15T17:27:25.627Z,5.22
2023-03-15T17:29:56.059Z,5.65
2023-03-15T17:32:26.583Z,5.90
2023-03-15T17:34:59.137Z,4.60
2023-03-15T17:37:35.502Z,4.47
2023-03-15T17:40:11.790Z,4.45
2023-03-15T17:42:45.005Z,4.97
2023-03-15T17:45:20.886Z,5.13
2023-03-15T17:47:51.262Z,6.97
2023-03-15T17:50:22.516Z,6.17
2023-03-15T17:55:30.025Z,8.15
2023-03-15T17:58:03.244Z,8.68
2023-03-15T18:00:34.570Z,6.10
2023-03-15T18:05:35.204Z,6.63
2023-03-15T18:08:06.778Z,5.90
2023-03-15T18:10:41.711Z,5.38
2023-03-15T18:13:21.691Z,6.38
2023-03-15T18:15:53.046Z,5.30
2023-03-15T18:20:54.088Z,6.65
2023-03-15T18:23:24.630Z,6.13
2023-03-15T18:28:30.931Z,6.35
2023-03-15T18:31:01.309Z,5.07
2023-03-15T18:33:31.935Z,5.37
2023-03-15T18:36:02.392Z,4.93
2023-03-15T18:38:33.217Z,5.35
2023-03-15T18:41:03.781Z,5.47
2023-03-15T18:43:37.022Z,5.88
2023-03-15T18:46:07.651Z,5.80
2023-03-15T18:48:41.071Z,5.90
2023-03-15T18:51:13.890Z,5.75
2023-03-15T18:53:46.554Z,6.03
2023-03-15T18:56:21.448Z,5.40
2023-03-15T18:58:55.901Z,6.53
2023-03-15T19:01:27.222Z,5.57
2023-03-15T19:03:57.992Z,6.00
2023-03-15T19:06:28.517Z,6.88
2023-03-15T19:09:00.854Z,6.18
2023-03-15T19:11:32.448Z,6.90
2023-03-15T19:14:05.410Z,6.13
2023-03-15T19:16:38.433Z,6.77
2023-03-15T19:19:09.110Z,6.40
2023-03-15T19:21:39.561Z,7.00
2023-03-15T19:24:11.133Z,6.27
2023-03-15T19:26:42.019Z,6.60
2023-03-15T19:29:15.002Z,5.90
2023-03-15T19:31:45.430Z,6.83
2023-03-15T19:34:15.759Z,6.87
2023-03-15T19:36:46.122Z,6.47
2023-03-15T19:39:16.503Z,5.33
2023-03-15T19:41:47.259Z,5.07
2023-03-15T19:44:22.491Z,4.70
2023-03-15T19:46:53.231Z,5.13
2023-03-15T19:49:24.154Z,5.07
2023-03-15T19:51:54.618Z,5.80
2023-03-15T19:54:25.200Z,5.68
2023-03-15T19:56:55.898Z,6.35
2023-03-15T19:59:33.267Z,5.82
2023-03-15T20:02:03.671Z,7.27
2023-03-15T20:04:34.101Z,5.60
2023-03-15T20:07:04.521Z,7.90
2023-03-15T20:09:38.958Z,7.30
2023-03-15T20:12:10.523Z,6.80
2023-03-15T20:14:43.915Z,7.20
2023-03-15T20:17:15.310Z,7.70
2023-03-15T20:19:45.833Z,7.57
2023-03-15T20:22:16.251Z,9.27
2023-03-15T20:24:46.947Z,8.80
2023-03-15T20:27:17.443Z,8.50
2023-03-15T20:29:51.995Z,8.25
2023-03-15T20:32:22.432Z,7.83
2023-03-15T20:34:57.105Z,8.33
2023-03-15T20:37:27.611Z,8.17
2023-03-15T20:39:58.082Z,8.40
2023-03-15T20:42:28.545Z,8.25
2023-03-15T20:45:01.555Z,7.95
2023-03-15T20:47:31.969Z,8.27
2023-03-15T20:50:02.401Z,7.00
2023-03-15T20:52:34.336Z,8.03
2023-03-15T20:55:08.026Z,6.60
2023-03-15T20:57:41.572Z,7.47
2023-03-15T21:00:20.122Z,7.50
2023-03-15T21:02:51.395Z,7.00
2023-03-15T21:05:24.333Z,8.55
2023-03-15T21:07:56.028Z,8.00
2023-03-15T21:10:26.757Z,8.53
2023-03-15T21:12:57.388Z,6.05
2023-03-15T21:15:30.571Z,5.97
2023-03-15T21:18:01.070Z,6.20
2023-03-15T21:20:32.948Z,5.95
2023-03-15T21:23:03.347Z,5.17
2023-03-15T21:25:33.808Z,7.63
2023-03-15T21:28:04.248Z,7.10
2023-03-15T21:30:37.984Z,6.57
2023-03-15T21:33:08.373Z,6.67
2023-03-15T21:35:41.443Z,6.85
2023-03-15T21:38:11.892Z,6.60
2023-03-15T21:40:46.569Z,6.60
2023-03-15T21:43:17.364Z,7.07
2023-03-15T21:45:51.004Z,8.13
2023-03-15T21:48:21.724Z,8.30
2023-03-15T21:50:54.146Z,6.38
2023-03-15T21:53:27.262Z,6.20
2023-03-15T21:55:59.657Z,5.20
2023-03-15T21:58:31.476Z,5.50
2023-03-15T22:01:08.114Z,5.83
2023-03-15T22:03:41.865Z,6.07
2023-03-15T22:06:13.141Z,6.50
2023-03-15T22:11:13.982Z,6.10
2023-03-15T22:13:44.755Z,5.57
2023-03-15T22:16:17.975Z,5.18
2023-03-15T22:18:54.118Z,5.70
2023-03-15T22:21:27.839Z,6.43
2023-03-15T22:23:58.245Z,5.45
2023-03-15T22:26:28.718Z,6.90
2023-03-15T22:28:59.130Z,4.67
2023-03-15T22:31:32.887Z,5.03
2023-03-15T22:34:04.903Z,6.63
2023-03-15T22:36:38.890Z,5.70
2023-03-15T22:39:09.313Z,5.63
2023-03-15T22:41:39.759Z,5.87
2023-03-15T22:44:10.105Z,6.40
2023-03-15T22:46:44.749Z,4.93
2023-03-15T22:49:15.170Z,6.10
2023-03-15T22:51:45.858Z,6.30
2023-03-15T22:54:16.214Z,5.60
2023-03-15T22:56:46.795Z,6.30
2023-03-15T22:59:17.238Z,5.43
2023-03-15T23:01:50.267Z,5.57
2023-03-15T23:04:20.710Z,5.73
2023-03-15T23:06:54.645Z,5.27
2023-03-15T23:09:24.933Z,5.53
2023-03-15T23:11:55.384Z,5.50
2023-03-15T23:14:25.888Z,5.47
2023-03-15T23:16:59.340Z,5.50
2023-03-15T23:19:29.677Z,5.07
2023-03-15T23:22:00.029Z,5.28
2023-03-15T23:24:30.769Z,5.23
2023-03-15T23:27:03.525Z,4.25
2023-03-15T23:29:47.162Z,4.37
2023-03-15T23:32:27.802Z,5.33
2023-03-15T23:34:58.177Z,4.43
2023-03-15T23:37:28.765Z,4.83
2023-03-15T23:39:59.172Z,4.85
2023-03-15T23:42:32.703Z,5.13
2023-03-15T23:45:03.071Z,5.40
2023-03-15T23:47:35.992Z,5.20
2023-03-15T23:50:06.750Z,5.60
2023-03-15T23:52:37.603Z,5.15
2023-03-15T23:55:09.281Z,5.32
2023-03-15T23:57:39.688Z,5.37
